Time;durP1;ratioP1;P1;durP2;ratioP2;P2;SDS_P1;SDS_P2;PMS_P1;PMS_P2;Temp;Humidity;BMP_temperature;BMP_pressure;BME280_temperature;BME280_humidity;BME280_pressure;Samples;Min_cycle;Max_cycle;Signal;HPM_P1;HPM_P2
2023/09/29 00:00:37;;;;;;;6.15;2.58;;;15.60;99.90;;;15.39;100.00;97489.75;5012874;28;20497;-36
2023/09/29 00:03:06;;;;;;;6.13;2.60;;;15.60;99.90;;;15.39;100.00;97492.41;5014170;28;20053;-37
2023/09/29 00:05:32;;;;;;;3.55;2.58;;;15.60;99.90;;;15.36;100.00;97489.94;5014938;28;20509;-37
2023/09/29 00:07:57;;;;;;;4.30;2.38;;;15.60;99.90;;;15.36;100.00;97491.72;5010305;28;20372;-36
2023/09/29 00:10:23;;;;;;;3.58;2.30;;;15.50;99.90;;;15.32;100.00;97488.38;5014959;28;20026;-38
2023/09/29 00:12:50;;;;;;;3.72;2.50;;;15.50;99.90;;;15.25;100.00;97482.56;5011700;28;20136;-37
2023/09/29 00:15:18;;;;;;;5.47;2.80;;;15.40;99.90;;;15.21;100.00;97477.50;5012153;28;20120;-37
2023/09/29 00:17:44;;;;;;;8.02;2.92;;;15.40;99.90;;;15.15;100.00;97481.34;5013247;28;20018;-36
2023/09/29 00:22:40;;;;;;;3.47;2.58;;;15.30;99.90;;;15.11;100.00;97481.59;5011134;28;20030;-36
2023/09/29 00:25:07;;;;;;;6.03;2.80;;;15.30;99.90;;;15.03;100.00;97469.56;5011621;28;20036;-36
2023/09/29 00:27:33;;;;;;;6.45;3.03;;;15.30;99.90;;;15.03;100.00;97479.34;5010406;28;20150;-36
2023/09/29 00:29:58;;;;;;;5.38;2.70;;;15.20;99.90;;;15.00;100.00;97485.69;5010199;28;20045;-36
2023/09/29 00:32:25;;;;;;;4.03;2.83;;;15.20;99.90;;;14.98;100.00;97484.03;5014582;28;20490;-36
2023/09/29 00:34:50;;;;;;;4.00;2.60;;;15.20;99.90;;;14.95;100.00;97482.41;5011518;28;20030;-36
2023/09/29 00:37:17;;;;;;;4.60;2.60;;;15.20;99.90;;;14.97;100.00;97485.00;5014155;28;20029;-36
2023/09/29 00:39:43;;;;;;;3.53;2.53;;;15.20;99.90;;;14.96;100.00;97491.22;5011893;28;20053;-38
2023/09/29 00:42:09;;;;;;;5.20;2.85;;;15.10;99.90;;;14.93;100.00;97484.31;5011087;28;20034;-36
2023/09/29 00:44:35;;;;;;;5.45;2.95;;;15.20;99.90;;;14.90;100.00;97484.47;5010964;28;20035;-36
2023/09/29 00:47:04;;;;;;;5.93;2.90;;;15.10;99.90;;;14.86;100.00;97480.25;5009472;28;20029;-36
2023/09/29 00:49:30;;;;;;;5.28;2.83;;;15.10;99.90;;;14.86;100.00;97485.56;4997999;28;20037;-36
2023/09/29 00:52:01;;;;;;;4.63;2.80;;;15.10;99.90;;;14.87;100.00;97487.28;4996401;28;20092;-37
2023/09/29 00:54:35;;;;;;;3.00;2.42;;;15.10;99.90;;;14.86;100.00;97486.41;5011166;28;20044;-36
2023/09/29 00:57:04;;;;;;;7.25;3.13;;;15.00;99.90;;;14.86;100.00;97491.72;5011552;28;20397;-36
2023/09/29 00:59:31;;;;;;;3.97;2.50;;;15.00;99.90;;;14.80;100.00;97478.75;4994669;28;20033;-37
2023/09/29 01:01:58;;;;;;;6.50;2.75;;;15.00;99.90;;;14.65;100.00;97458.34;5005045;28;20033;-36
2023/09/29 01:04:23;;;;;;;3.95;2.50;;;14.90;99.90;;;14.68;100.00;97480.28;5013545;28;20084;-37
2023/09/29 01:06:50;;;;;;;3.72;2.63;;;14.90;99.90;;;14.57;100.00;97464.03;5016934;28;20096;-38
2023/09/29 01:09:16;;;;;;;5.82;2.78;;;14.80;99.90;;;14.51;100.00;97467.84;4998868;28;20030;-39
2023/09/29 01:11:43;;;;;;;4.85;2.85;;;14.70;99.90;;;14.48;100.00;97480.41;5019515;28;20125;-39
2023/09/29 01:14:11;;;;;;;4.13;2.50;;;14.70;99.90;;;14.42;100.00;97475.44;5014918;28;20500;-38
2023/09/29 01:16:43;;;;;;;3.35;2.17;;;14.60;99.90;;;14.42;100.00;97483.38;5015921;28;20065;-38
2023/09/29 01:19:13;;;;;;;3.92;2.70;;;14.60;99.90;;;14.40;100.00;97477.31;5013357;28;20098;-39
2023/09/29 01:21:44;;;;;;;4.40;2.75;;;14.60;99.90;;;14.35;100.00;97485.47;5016814;28;20039;-38
2023/09/29 01:24:11;;;;;;;3.63;2.50;;;14.50;99.90;;;14.19;100.00;97466.81;5014865;28;20033;-38
2023/09/29 01:26:37;;;;;;;3.80;2.53;;;14.50;99.90;;;14.24;100.00;97480.72;5017008;28;20049;-38
2023/09/29 01:29:03;;;;;;;6.70;2.65;;;14.40;99.90;;;14.20;100.00;97484.47;5018667;28;20489;-38
2023/09/29 01:31:31;;;;;;;4.40;2.60;;;14.40;99.90;;;14.16;100.00;97482.03;5018833;28;20059;-37
2023/09/29 01:33:57;;;;;;;4.35;2.65;;;14.40;99.90;;;14.12;100.00;97476.91;5015044;28;20033;-38
2023/09/29 01:36:24;;;;;;;3.55;2.67;;;14.30;99.90;;;14.07;100.00;97475.44;5018561;28;20033;-39
2023/09/29 01:38:49;;;;;;;4.60;2.70;;;14.30;99.90;;;14.00;100.00;97469.56;5016369;28;20070;-39
2023/09/29 01:41:15;;;;;;;4.13;2.72;;;14.20;99.90;;;14.02;100.00;97488.91;5012655;28;20321;-38
2023/09/29 01:43:41;;;;;;;4.90;2.63;;;14.20;99.90;;;14.00;100.00;97481.94;5018513;28;20033;-38
2023/09/29 01:46:11;;;;;;;4.05;2.63;;;14.20;99.90;;;13.97;100.00;97479.47;5018395;28;20512;-36
2023/09/29 01:48:36;;;;;;;4.25;2.58;;;14.20;99.90;;;13.98;100.00;97481.16;5018299;28;20037;-36
2023/09/29 01:51:02;;;;;;;3.08;2.40;;;14.20;99.90;;;13.93;100.00;97471.66;4999782;28;20044;-36
2023/09/29 01:53:30;;;;;;;3.65;2.95;;;14.10;99.90;;;13.80;100.00;97457.28;5019723;28;20033;-36
2023/09/29 01:55:56;;;;;;;4.15;2.85;;;14.10;99.90;;;13.87;100.00;97474.63;5015993;28;20112;-37
2023/09/29 01:58:23;;;;;;;5.32;2.67;;;14.10;99.90;;;13.83;100.00;97469.53;5018913;28;20225;-38
2023/09/29 02:00:49;;;;;;;5.43;3.13;;;14.00;99.90;;;13.79;100.00;97474.13;5016576;28;20559;-36
2023/09/29 02:03:16;;;;;;;4.85;2.95;;;14.00;99.90;;;13.74;100.00;97468.19;5012393;28;20032;-37
2023/09/29 02:05:42;;;;;;;4.15;2.70;;;14.00;99.90;;;13.72;100.00;97476.19;5016466;28;20036;-36
2023/09/29 02:08:09;;;;;;;6.75;3.10;;;13.90;99.90;;;13.70;100.00;97474.56;5009980;28;20621;-36
2023/09/29 02:10:36;;;;;;;5.72;2.65;;;13.90;99.90;;;13.68;100.00;97463.19;5014926;28;20056;-37
2023/09/29 02:13:07;;;;;;;5.80;2.75;;;13.90;99.90;;;13.67;100.00;97466.75;5011311;28;20599;-36
2023/09/29 02:15:34;;;;;;;4.55;3.13;;;13.90;99.90;;;13.54;100.00;97455.91;5014971;28;20128;-37
2023/09/29 02:18:09;;;;;;;5.68;2.90;;;13.90;99.90;;;13.57;100.00;97453.09;5009806;28;20030;-36
2023/09/29 02:20:52;;;;;;;4.22;2.88;;;13.90;99.90;;;13.67;100.00;97459.66;5006375;28;20084;-36
2023/09/29 02:23:19;;;;;;;5.28;2.88;;;13.90;99.90;;;13.68;100.00;97453.44;5012356;28;20393;-36
2023/09/29 02:25:45;;;;;;;4.72;2.70;;;13.90;99.90;;;13.71;100.00;97468.31;5016154;28;20032;-36
2023/09/29 02:28:10;;;;;;;4.60;2.90;;;14.00;99.90;;;13.73;100.00;97462.03;5014418;28;20382;-37
2023/09/29 02:30:36;;;;;;;4.63;2.80;;;14.00;99.90;;;13.75;100.00;97473.41;5012149;28;20452;-36
2023/09/29 02:33:02;;;;;;;5.57;2.92;;;14.00;99.90;;;13.79;100.00;97470.63;5013578;28;20064;-38
2023/09/29 02:35:28;;;;;;;4.32;2.60;;;14.00;99.90;;;13.78;100.00;97464.44;5013813;28;20125;-36
2023/09/29 02:37:54;;;;;;;4.28;2.70;;;14.00;99.90;;;13.77;100.00;97468.03;5016688;28;20026;-37
2023/09/29 02:40:22;;;;;;;4.88;3.00;;;14.00;99.90;;;13.77;100.00;97461.88;5014867;28;20030;-37
2023/09/29 02:42:47;;;;;;;5.22;2.90;;;14.00;99.90;;;13.75;100.00;97464.59;5014437;28;20036;-38
2023/09/29 02:45:14;;;;;;;4.45;2.88;;;14.00;99.90;;;13.75;100.00;97459.31;5011048;28;20025;-37
2023/09/29 02:47:39;;;;;;;7.68;3.05;;;14.00;99.90;;;13.70;100.00;97459.50;5014825;28;20036;-37
2023/09/29 02:50:14;;;;;;;4.25;2.72;;;14.00;99.90;;;13.78;100.00;97453.84;5013131;28;20381;-38
2023/09/29 02:52:40;;;;;;;6.25;2.47;;;14.00;99.90;;;13.84;100.00;97458.84;5013333;28;20034;-37
2023/09/29 02:55:12;;;;;;;5.30;3.15;;;14.10;99.90;;;13.83;100.00;97450.97;5014467;28;20056;-37
2023/09/29 02:57:41;;;;;;;3.58;2.60;;;14.10;99.90;;;13.86;100.00;97462.28;5014499;28;20031;-37
2023/09/29 03:00:12;;;;;;;4.80;2.95;;;14.10;99.90;;;13.93;100.00;97473.44;5014590;28;20036;-37
2023/09/29 03:02:38;;;;;;;4.78;2.67;;;14.20;99.90;;;13.97;100.00;97461.75;5013813;28;20041;-38
2023/09/29 03:05:07;;;;;;;5.35;3.08;;;14.20;99.90;;;13.98;100.00;97463.47;5013691;28;20579;-37
2023/09/29 03:07:34;;;;;;;7.68;3.40;;;14.20;99.90;;;14.00;100.00;97466.03;5012976;28;20025;-37
2023/09/29 03:09:59;;;;;;;4.07;2.70;;;14.20;99.90;;;13.93;100.00;97457.53;5011710;28;20072;-37
2023/09/29 03:12:25;;;;;;;5.55;3.20;;;14.20;99.90;;;13.90;100.00;97457.69;5014220;28;20037;-37
2023/09/29 03:14:51;;;;;;;5.25;2.83;;;14.20;99.90;;;13.93;100.00;97463.69;5014588;28;20036;-37
2023/09/29 03:17:17;;;;;;;5.93;3.00;;;14.20;99.90;;;13.93;100.00;97457.53;5008130;28;20037;-38
2023/09/29 03:19:43;;;;;;;4.63;3.10;;;14.20;99.90;;;13.91;100.00;97462.91;5008078;28;20587;-37
2023/09/29 03:22:13;;;;;;;4.20;2.65;;;14.10;99.90;;;13.89;100.00;97456.84;5011099;28;20116;-37
2023/09/29 03:24:39;;;;;;;6.95;3.35;;;14.10;99.90;;;13.86;100.00;97451.69;5006245;28;20041;-37
2023/09/29 03:27:04;;;;;;;4.22;2.70;;;14.10;99.90;;;13.86;100.00;97445.53;5012789;28;20087;-37
2023/09/29 03:29:30;;;;;;;5.50;3.20;;;14.10;99.90;;;13.89;100.00;97446.22;5014402;28;20037;-38
2023/09/29 03:31:56;;;;;;;4.40;2.75;;;14.10;99.90;;;13.94;100.00;97459.25;5011343;28;20471;-37
2023/09/29 03:34:23;;;;;;;3.92;2.72;;;14.10;99.90;;;13.95;100.00;97458.31;5014207;28;20600;-38
2023/09/29 03:36:50;;;;;;;5.13;3.17;;;14.10;99.90;;;13.98;100.00;97460.84;5011413;28;20184;-37
2023/09/29 03:39:17;;;;;;;6.22;3.10;;;14.20;99.90;;;13.97;100.00;97460.91;5013228;28;20025;-37
2023/09/29 03:41:43;;;;;;;6.13;2.80;;;14.20;99.90;;;13.94;100.00;97453.94;5010879;28;20329;-37
2023/09/29 03:44:12;;;;;;;6.80;2.63;;;14.20;99.90;;;13.91;100.00;97462.91;5012470;28;20061;-37
2023/09/29 03:46:38;;;;;;;4.43;2.72;;;14.10;99.90;;;13.87;100.00;97464.00;5011867;28;20527;-37
2023/09/29 03:49:05;;;;;;;5.90;2.60;;;14.10;99.90;;;13.82;100.00;97466.03;5013752;28;20056;-38
2023/09/29 03:51:30;;;;;;;5.18;2.55;;;14.00;99.90;;;13.66;100.00;97443.84;5013076;28;20045;-37
2023/09/29 03:53:57;;;;;;;4.28;2.65;;;14.00;99.90;;;13.60;100.00;97444.97;5014851;28;20049;-37
2023/09/29 03:56:23;;;;;;;4.45;3.05;;;13.90;99.90;;;13.67;100.00;97456.16;5011634;28;20029;-37
2023/09/29 03:58:55;;;;;;;4.30;2.70;;;13.90;99.90;;;13.65;100.00;97460.69;4997578;28;21743;-37
2023/09/29 04:01:22;;;;;;;5.07;2.75;;;13.90;99.90;;;13.65;100.00;97466.81;5009821;28;20034;-37
2023/09/29 04:03:47;;;;;;;5.07;2.88;;;13.90;99.90;;;13.61;100.00;97453.81;5011848;28;20039;-37
2023/09/29 04:06:14;;;;;;;4.22;2.97;;;13.90;99.90;;;13.74;100.00;97470.81;5008066;28;20041;-37
2023/09/29 04:08:40;;;;;;;5.45;2.88;;;14.00;99.90;;;13.81;100.00;97482.00;5012057;28;20037;-37
2023/09/29 04:11:07;;;;;;;3.67;2.50;;;14.10;99.90;;;13.81;100.00;97469.59;5010598;28;20049;-39
2023/09/29 04:13:33;;;;;;;4.60;2.95;;;14.10;99.90;;;13.93;100.00;97484.06;5003391;28;20093;-38
2023/09/29 04:16:06;;;;;;;5.43;3.30;;;14.20;99.90;;;14.02;100.00;97473.00;5007170;28;20041;-39
2023/09/29 04:18:32;;;;;;;4.75;2.85;;;14.30;99.90;;;14.09;100.00;97469.09;5006880;28;20163;-37
2023/09/29 04:21:01;;;;;;;4.15;2.75;;;14.30;99.90;;;14.15;100.00;97473.22;5004712;28;21015;-38
2023/09/29 04:23:27;;;;;;;5.10;2.90;;;14.40;99.90;;;14.21;100.00;97475.59;5011155;28;20102;-39
2023/09/29 04:25:53;;;;;;;5.45;2.90;;;14.40;99.90;;;14.28;100.00;97482.31;5012609;28;20112;-37
2023/09/29 04:28:19;;;;;;;6.15;3.20;;;14.50;99.90;;;14.33;100.00;97471.44;5008382;28;20435;-37
2023/09/29 04:30:45;;;;;;;4.90;2.80;;;14.60;99.90;;;14.35;100.00;97463.41;5007465;28;20030;-38
2023/09/29 04:33:11;;;;;;;4.47;2.60;;;14.60;99.90;;;14.48;100.00;97488.38;5012632;28;20030;-38
2023/09/29 04:35:36;;;;;;;4.47;2.78;;;14.70;99.90;;;14.57;100.00;97505.63;5015235;28;20021;-37
2023/09/29 04:38:02;;;;;;;5.15;2.85;;;14.80;99.90;;;14.60;100.00;97505.50;5009094;28;20326;-37
2023/09/29 04:40:28;;;;;;;3.97;2.55;;;14.80;99.90;;;14.64;100.00;97499.09;5014295;28;20049;-37
2023/09/29 04:42:54;;;;;;;5.10;2.83;;;14.90;99.90;;;14.67;100.00;97501.59;5015418;28;20151;-37
2023/09/29 04:45:20;;;;;;;4.63;2.85;;;14.90;99.90;;;14.67;100.00;97505.09;5004146;28;20512;-38
2023/09/29 04:47:46;;;;;;;4.90;3.10;;;14.90;99.90;;;14.70;100.00;97504.94;5014484;28;20037;-37
2023/09/29 04:50:14;;;;;;;5.32;3.03;;;14.90;99.90;;;14.63;100.00;97490.28;5006364;28;20037;-37
2023/09/29 04:52:39;;;;;;;4.55;3.30;;;14.90;99.90;;;14.74;100.00;97505.63;5009445;28;20041;-37
2023/09/29 04:55:05;;;;;;;6.22;3.15;;;15.00;99.90;;;14.74;100.00;97495.03;5013679;28;20155;-39
2023/09/29 04:57:31;;;;;;;4.32;2.78;;;14.90;99.90;;;14.75;100.00;97496.75;5012806;28;20017;-37
2023/09/29 04:59:57;;;;;;;5.40;2.95;;;15.00;99.90;;;14.76;100.00;97502.91;5015682;28;20021;-37
2023/09/29 05:02:24;;;;;;;5.55;3.03;;;15.00;99.90;;;14.76;100.00;97494.94;5016122;28;20377;-37
2023/09/29 05:04:50;;;;;;;8.18;2.90;;;15.00;99.90;;;14.75;100.00;97495.88;5011728;28;20398;-37
2023/09/29 05:07:16;;;;;;;4.43;2.90;;;15.00;99.90;;;14.72;100.00;97490.75;5012017;28;20390;-39
2023/09/29 05:09:41;;;;;;;4.80;2.80;;;15.00;99.90;;;14.74;100.00;97491.53;5015157;28;20037;-38
2023/09/29 05:12:07;;;;;;;4.95;3.03;;;15.00;99.90;;;14.75;100.00;97493.22;5008984;28;20694;-38
2023/09/29 05:14:33;;;;;;;5.00;2.78;;;15.00;99.90;;;14.74;100.00;97491.53;5012531;28;20071;-38
2023/09/29 05:16:59;;;;;;;5.50;3.15;;;15.00;99.90;;;14.74;100.00;97487.06;5009092;28;20046;-38
2023/09/29 05:19:24;;;;;;;7.35;3.35;;;15.00;99.90;;;14.76;100.00;97494.94;5007198;28;20580;-38
2023/09/29 05:21:50;;;;;;;3.78;2.50;;;14.90;99.90;;;14.76;100.00;97494.94;5001180;28;20029;-37
2023/09/29 05:24:16;;;;;;;4.63;3.10;;;15.00;99.90;;;14.76;100.00;97498.44;5008844;28;20129;-38
2023/09/29 05:26:42;;;;;;;4.85;2.90;;;15.00;99.90;;;14.74;100.00;97492.38;5011456;28;20723;-38
2023/09/29 05:29:07;;;;;;;4.50;2.80;;;15.00;99.90;;;14.80;100.00;97505.31;5014856;28;20029;-38
2023/09/29 05:31:33;;;;;;;5.65;3.00;;;15.00;99.90;;;14.84;100.00;97517.50;5013203;28;20256;-39
2023/09/29 05:33:59;;;;;;;4.97;2.80;;;15.10;99.90;;;14.79;100.00;97494.78;5015563;28;20029;-38
2023/09/29 05:36:25;;;;;;;4.95;2.80;;;15.10;99.90;;;14.90;100.00;97508.34;5012140;28;20071;-39
2023/09/29 05:38:50;;;;;;;4.55;2.70;;;15.10;99.90;;;14.93;100.00;97502.91;5013930;28;20112;-38
2023/09/29 05:41:16;;;;;;;8.60;3.22;;;15.10;99.90;;;14.96;100.00;97507.16;5014936;28;20154;-38
2023/09/29 05:43:42;;;;;;;4.68;3.00;;;15.20;99.90;;;14.98;100.00;97515.91;5013474;28;20397;-40
2023/09/29 05:46:07;;;;;;;4.70;3.08;;;15.20;99.90;;;14.98;100.00;97508.78;5008660;28;20040;-40
2023/09/29 05:48:33;;;;;;;8.57;3.60;;;15.20;99.90;;;15.03;100.00;97520.03;5015579;28;20040;-39
2023/09/29 05:51:00;;;;;;;5.22;3.35;;;15.20;99.90;;;14.82;100.00;97471.59;5013912;28;20041;-39
2023/09/29 05:53:26;;;;;;;5.22;2.92;;;15.30;99.90;;;15.10;100.00;97514.41;4992927;28;20033;-39
2023/09/29 05:55:51;;;;;;;5.13;2.95;;;15.30;99.90;;;15.15;100.00;97525.66;5017987;28;20037;-39
2023/09/29 05:58:17;;;;;;;5.22;3.05;;;15.40;99.90;;;15.20;100.00;97523.59;5016117;28;20033;-39
2023/09/29 06:00:43;;;;;;;4.78;2.92;;;15.40;99.90;;;15.27;100.00;97532.94;5010876;28;20036;-38
2023/09/29 06:03:09;;;;;;;3.20;2.50;;;15.50;99.90;;;15.27;100.00;97511.69;5011545;28;20025;-39
2023/09/29 06:05:34;;;;;;;7.32;2.65;;;15.60;99.90;;;15.41;100.00;97519.75;5012405;28;20044;-39
2023/09/29 06:08:00;;;;;;;5.28;2.40;;;15.70;99.90;;;15.49;100.00;97519.38;5012006;28;20068;-40
2023/09/29 06:10:27;;;;;;;3.63;2.83;;;15.80;99.90;;;15.61;100.00;97525.78;5016053;28;20056;-38
2023/09/29 06:12:53;;;;;;;6.35;3.38;;;15.80;99.90;;;15.74;100.00;97533.94;5000915;28;20053;-38
2023/09/29 06:15:19;;;;;;;6.82;3.17;;;15.90;99.90;;;15.84;100.00;97528.09;5010625;28;20040;-40
2023/09/29 06:17:45;;;;;;;5.60;2.95;;;16.00;99.90;;;15.96;100.00;97533.66;5015260;28;20029;-39
2023/09/29 06:20:11;;;;;;;5.45;2.97;;;16.10;99.90;;;16.07;100.00;97531.22;5010354;28;20401;-39
2023/09/29 06:22:37;;;;;;;6.22;3.20;;;16.20;99.90;;;16.18;100.00;97538.59;5009730;28;20035;-40
2023/09/29 06:25:03;;;;;;;6.18;3.90;;;16.30;99.90;;;16.28;100.00;97537.13;5015001;28;20080;-38
2023/09/29 06:27:29;;;;;;;6.45;3.28;;;16.50;99.90;;;16.37;100.00;97539.25;5010621;28;20033;-39
2023/09/29 06:29:54;;;;;;;4.75;2.92;;;16.50;99.90;;;16.44;100.00;97537.09;5017195;28;20063;-39
2023/09/29 06:32:21;;;;;;;6.28;3.80;;;16.60;99.90;;;16.50;100.00;97536.72;5014768;28;20297;-37
2023/09/29 06:34:46;;;;;;;6.10;3.65;;;16.70;99.90;;;16.54;100.00;97542.72;5014241;28;20901;-38
2023/09/29 06:37:12;;;;;;;5.10;3.13;;;16.70;99.90;;;16.59;100.00;97536.19;4996166;28;20025;-37
2023/09/29 06:39:38;;;;;;;5.97;3.00;;;16.80;99.90;;;16.66;100.00;97541.16;5012228;28;20037;-38
2023/09/29 06:42:04;;;;;;;7.10;3.30;;;16.80;99.90;;;16.74;100.00;97542.41;5016420;28;20516;-38
2023/09/29 06:44:32;;;;;;;5.53;3.15;;;16.90;99.90;;;16.84;100.00;97539.22;4997656;28;20547;-38
2023/09/29 06:46:58;;;;;;;4.97;2.92;;;17.00;99.90;;;16.95;100.00;97542.09;5017016;28;20049;-37
2023/09/29 06:49:24;;;;;;;6.22;3.28;;;17.10;99.90;;;17.02;100.00;97547.91;5013351;28;20116;-38
2023/09/29 06:51:49;;;;;;;4.65;3.25;;;17.20;99.90;;;17.16;100.00;97551.44;5014012;28;21560;-38
2023/09/29 06:54:15;;;;;;;4.45;3.00;;;17.30;99.90;;;17.26;100.00;97553.53;5011579;28;20026;-37
2023/09/29 06:56:41;;;;;;;6.07;3.53;;;17.40;99.90;;;17.35;100.00;97555.63;5010473;28;20034;-38
2023/09/29 06:59:07;;;;;;;5.53;2.55;;;17.50;99.90;;;17.43;100.00;97556.03;5013566;28;20608;-38
2023/09/29 07:01:34;;;;;;;5.13;3.13;;;17.60;99.90;;;17.54;100.00;97558.88;5011697;28;20029;-38
2023/09/29 07:04:00;;;;;;;4.18;2.90;;;17.70;99.90;;;17.63;100.00;97561.94;5014904;28;20037;-38
2023/09/29 07:06:25;;;;;;;6.57;3.60;;;17.80;99.90;;;17.73;100.00;97558.59;5015160;28;20045;-38
2023/09/29 07:08:51;;;;;;;7.15;3.42;;;17.90;99.90;;;17.82;100.00;97561.59;5016438;28;20038;-38
2023/09/29 07:11:18;;;;;;;8.63;3.70;;;18.00;99.90;;;17.91;100.00;97555.75;5015752;28;20561;-38
2023/09/29 07:13:43;;;;;;;7.68;3.47;;;18.00;99.90;;;18.01;100.00;97554.16;5014849;28;20413;-38
2023/09/29 07:16:09;;;;;;;8.70;4.05;;;18.20;99.90;;;18.13;100.00;97552.53;5013972;28;20645;-38
2023/09/29 07:18:35;;;;;;;5.90;3.83;;;18.30;99.90;;;18.24;100.00;97544.66;5011369;28;20641;-40
2023/09/29 07:21:01;;;;;;;7.68;3.47;;;18.40;99.90;;;18.39;100.00;97541.94;5011481;28;20069;-38
2023/09/29 07:23:30;;;;;;;6.20;3.05;;;18.50;99.90;;;18.45;100.00;97539.72;5014018;28;20025;-38
2023/09/29 07:25:56;;;;;;;6.22;3.90;;;18.70;99.90;;;18.54;100.00;97534.72;5015549;28;20024;-39
2023/09/29 07:28:22;;;;;;;5.63;3.63;;;18.80;99.90;;;18.74;100.00;97552.09;5012308;28;20494;-39
2023/09/29 07:30:50;;;;;;;5.63;3.78;;;18.90;99.90;;;18.72;100.00;97537.94;5005844;28;20442;-40
2023/09/29 07:33:16;;;;;;;7.03;3.50;;;18.90;99.90;;;18.81;100.00;97551.59;5014983;28;20081;-39
2023/09/29 07:35:46;;;;;;;8.25;3.88;;;18.90;99.90;;;18.79;100.00;97544.59;5013411;28;20552;-40
2023/09/29 07:38:13;;;;;;;8.18;4.03;;;18.90;99.90;;;18.78;100.00;97549.09;5014991;28;20028;-41
2023/09/29 07:40:38;;;;;;;6.05;3.80;;;18.90;99.90;;;18.83;100.00;97552.34;5015405;28;20501;-39
2023/09/29 07:43:05;;;;;;;5.78;3.45;;;18.90;99.90;;;18.85;100.00;97542.41;5015135;28;20240;-38
2023/09/29 07:45:33;;;;;;;5.18;3.22;;;19.00;99.90;;;18.92;100.00;97550.88;5016124;28;20056;-39
2023/09/29 07:47:59;;;;;;;9.32;4.10;;;19.00;99.90;;;18.92;100.00;97550.00;5016842;28;20466;-38
2023/09/29 07:50:25;;;;;;;5.75;3.38;;;19.10;99.90;;;19.01;100.00;97552.06;5011450;28;20033;-38
2023/09/29 07:52:51;;;;;;;6.75;3.45;;;19.20;99.90;;;19.11;100.00;97545.09;5016831;28;20060;-38
2023/09/29 07:55:16;;;;;;;6.30;3.35;;;19.30;99.90;;;19.37;100.00;97555.81;5011857;28;20036;-38
2023/09/29 07:57:42;;;;;;;6.93;3.25;;;19.50;99.90;;;19.60;100.00;97562.19;5014401;28;20398;-40
2023/09/29 08:00:17;;;;;;;5.30;2.72;;;19.70;99.90;;;19.82;100.00;97562.41;5011666;28;20803;-38
2023/09/29 08:02:43;;;;;;;7.30;3.67;;;19.90;99.90;;;20.02;100.00;97555.59;5015918;28;20104;-39
2023/09/29 08:05:12;;;;;;;5.93;3.53;;;20.20;99.90;;;20.12;100.00;97557.63;5009669;28;20029;-38
2023/09/29 08:07:39;;;;;;;6.88;3.42;;;20.30;99.90;;;20.31;100.00;97565.97;5016296;28;20045;-38
2023/09/29 08:10:07;;;;;;;16.75;4.65;;;20.40;99.90;;;20.41;100.00;97568.84;5015213;28;20025;-38
2023/09/29 08:12:33;;;;;;;6.28;3.30;;;20.60;99.90;;;20.48;100.00;97567.44;5014292;28;20038;-38
2023/09/29 08:14:59;;;;;;;5.18;3.13;;;20.60;99.90;;;20.50;100.00;97567.31;5016678;28;20099;-38
2023/09/29 08:17:26;;;;;;;6.15;3.20;;;20.60;99.90;;;20.43;100.00;97560.72;5012752;28;20033;-39
2023/09/29 08:19:51;;;;;;;5.20;3.50;;;20.60;99.90;;;20.51;97.39;97574.38;5015749;28;20031;-38
2023/09/29 08:22:17;;;;;;;4.75;3.28;;;20.70;99.90;;;20.70;96.09;97564.00;5014783;28;20029;-40
2023/09/29 08:24:43;;;;;;;7.20;3.38;;;20.80;99.90;;;20.92;91.47;97571.25;5012336;28;20052;-38
2023/09/29 08:27:09;;;;;;;4.85;3.22;;;21.10;99.90;;;21.11;90.39;97570.72;5016085;28;20037;-39
2023/09/29 08:29:34;;;;;;;4.20;2.83;;;21.20;99.90;;;21.15;89.88;97565.97;5015606;28;20745;-40
2023/09/29 08:32:01;;;;;;;5.15;3.55;;;21.20;99.90;;;21.03;87.13;97570.47;5012284;28;20544;-38
2023/09/29 08:34:29;;;;;;;7.05;3.17;;;21.10;99.90;;;20.75;89.29;97548.44;5013283;28;20469;-39
2023/09/29 08:36:55;;;;;;;4.50;2.78;;;21.00;99.90;;;20.69;91.03;97556.97;5011083;28;20032;-38
2023/09/29 08:39:20;;;;;;;4.97;3.17;;;20.80;99.90;;;20.47;93.67;97563.03;5010398;28;20108;-39
2023/09/29 08:41:54;;;;;;;5.78;3.17;;;20.60;99.90;;;20.27;95.82;97556.47;5013281;28;20052;-38
2023/09/29 08:44:27;;;;;;;5.53;3.17;;;20.40;99.90;;;20.12;98.50;97562.97;5018526;28;20044;-39
2023/09/29 08:46:55;;;;;;;8.48;2.97;;;20.20;99.90;;;20.02;99.19;97547.56;5015605;28;20103;-38
2023/09/29 08:49:21;;;;;;;6.40;2.95;;;20.20;99.90;;;19.98;99.78;97551.44;5013701;28;20203;-39
2023/09/29 08:51:49;;;;;;;5.57;2.88;;;20.10;99.90;;;19.99;100.00;97565.66;4991950;28;20174;-38
2023/09/29 08:54:15;;;;;;;4.22;3.00;;;20.00;99.90;;;20.13;100.00;97557.47;4996421;28;20029;-39
2023/09/29 08:56:40;;;;;;;5.80;2.92;;;20.20;99.90;;;20.35;100.00;97564.81;5014536;28;20152;-40
2023/09/29 08:59:06;;;;;;;3.70;2.78;;;20.40;99.90;;;20.59;97.69;97567.47;5011960;28;20152;-39
2023/09/29 09:01:33;;;;;;;7.18;2.97;;;20.60;99.90;;;20.83;98.35;97563.09;5006792;28;20663;-39
2023/09/29 09:03:59;;;;;;;8.13;3.17;;;20.90;99.90;;;21.08;92.53;97562.91;5011651;28;21177;-40
2023/09/29 09:06:26;;;;;;;5.55;3.30;;;21.10;99.90;;;21.35;93.29;97559.94;5005246;28;20059;-38
2023/09/29 09:08:55;;;;;;;6.10;3.40;;;21.40;99.90;;;21.61;94.28;97554.38;5011537;28;20029;-39
2023/09/29 09:11:21;;;;;;;5.22;2.97;;;21.70;99.90;;;21.78;88.38;97539.56;5011849;28;20040;-38
2023/09/29 09:13:59;;;;;;;3.90;2.80;;;21.90;99.90;;;22.17;89.87;97552.59;5006796;28;20033;-40
2023/09/29 09:16:28;;;;;;;7.60;3.28;;;22.30;99.90;;;22.45;74.09;97551.19;5012734;28;20493;-38
2023/09/29 09:18:54;;;;;;;5.25;3.25;;;22.60;99.90;;;22.79;76.72;97540.28;5012366;28;20068;-38
2023/09/29 09:21:31;;;;;;;6.53;3.20;;;22.90;99.90;;;23.31;69.48;97543.94;5015882;28;20116;-38
2023/09/29 09:23:57;;;;;;;3.38;2.47;;;23.40;99.90;;;23.76;59.63;97556.19;5012427;28;20037;-39
2023/09/29 09:26:22;;;;;;;4.40;2.92;;;23.90;99.90;;;24.19;65.56;97545.16;5017250;28;20079;-38
2023/09/29 09:28:48;;;;;;;3.72;2.50;;;24.30;99.90;;;24.49;60.66;97548.75;5013714;28;20052;-39
2023/09/29 09:31:14;;;;;;;3.92;2.30;;;24.50;99.90;;;24.66;53.64;97549.09;5019107;28;20473;-40
2023/09/29 09:33:39;;;;;;;4.95;2.90;;;24.70;99.90;;;24.74;54.09;97552.75;4999410;28;20424;-38
2023/09/29 09:36:10;;;;;;;3.28;2.45;;;24.80;99.60;;;24.80;52.56;97556.75;5017869;28;20044;-39
2023/09/29 09:38:39;;;;;;;4.88;2.45;;;24.80;99.20;;;24.84;54.78;97555.47;4999252;28;20041;-42
2023/09/29 09:41:06;;;;;;;5.80;2.45;;;24.90;99.40;;;24.84;52.88;97557.31;5009153;28;20029;-40
2023/09/29 09:43:35;;;;;;;8.40;6.15;;;24.90;98.70;;;24.83;52.25;97548.34;5020703;28;20038;-38
2023/09/29 09:46:12;;;;;;;6.30;3.78;;;24.90;98.80;;;24.82;57.69;97549.38;5024165;28;20029;-38
2023/09/29 09:48:55;;;;;;;4.53;3.47;;;24.90;99.90;;;24.77;50.97;97549.78;5020526;28;20047;-38
2023/09/29 09:51:36;;;;;;;3.00;2.22;;;24.90;98.10;;;24.68;51.63;97552.50;5017660;28;20087;-39
2023/09/29 09:54:03;;;;;;;3.90;2.38;;;24.80;97.60;;;24.60;51.73;97555.88;5014350;28;20068;-38
2023/09/29 09:56:46;;;;;;;4.63;2.22;;;24.70;97.90;;;24.63;57.03;97562.84;5014446;28;20029;-39
2023/09/29 09:59:13;;;;;;;3.90;2.40;;;24.70;98.40;;;24.66;55.48;97558.03;5018306;28;20038;-39
2023/09/29 10:01:40;;;;;;;3.97;2.20;;;24.70;98.90;;;24.68;51.67;97557.88;5019177;28;20087;-39
2023/09/29 10:04:08;;;;;;;10.10;9.05;;;24.70;98.10;;;24.67;52.13;97561.56;5013579;28;20572;-41
2023/09/29 10:06:34;;;;;;;5.32;3.78;;;24.70;98.20;;;24.64;54.70;97562.72;5016008;28;20046;-40
2023/09/29 10:09:01;;;;;;;3.85;2.45;;;24.70;99.20;;;24.64;51.54;97560.00;5002565;28;20493;-38
2023/09/29 10:11:27;;;;;;;3.20;2.30;;;24.70;97.60;;;24.53;51.51;97543.94;5021036;28;20121;-38
2023/09/29 10:14:03;;;;;;;6.22;2.78;;;24.70;97.40;;;24.62;52.29;97561.13;5018309;28;20033;-38